sensor_id;sensor_type;location;lat;lon;timestamp;temperature;humidity
18779;DHT22;9518;51.720;14.384;2023-07-24T00:02:06;18.60;92.00
18779;DHT22;9518;51.720;14.384;2023-07-24T00:04:35;18.60;90.80
18779;DHT22;9518;51.720;14.384;2023-07-24T00:07:04;18.70;90.60
18779;DHT22;9518;51.720;14.384;2023-07-24T00:09:31;18.70;90.70
18779;DHT22;9518;51.720;14.384;2023-07-24T00:11:58;18.70;90.20
18779;DHT22;9518;51.720;14.384;2023-07-24T00:14:25;18.70;90.00
18779;DHT22;9518;51.720;14.384;2023-07-24T00:16:52;18.70;89.50
18779;DHT22;9518;51.720;14.384;2023-07-24T00:19:19;18.60;88.90
18779;DHT22;9518;51.720;14.384;2023-07-24T00:21:46;18.60;90.20
18779;DHT22;9518;51.720;14.384;2023-07-24T00:24:15;18.60;89.40
18779;DHT22;9518;51.720;14.384;2023-07-24T00:26:42;18.50;89.50
18779;DHT22;9518;51.720;14.384;2023-07-24T00:29:09;18.50;89.80
18779;DHT22;9518;51.720;14.384;2023-07-24T00:31:36;18.40;90.20
18779;DHT22;9518;51.720;14.384;2023-07-24T00:34:03;18.40;90.20
18779;DHT22;9518;51.720;14.384;2023-07-24T00:36:29;18.30;90.20
18779;DHT22;9518;51.720;14.384;2023-07-24T00:38:56;18.20;90.40
18779;DHT22;9518;51.720;14.384;2023-07-24T00:41:25;18.30;90.60
18779;DHT22;9518;51.720;14.384;2023-07-24T00:43:52;18.20;90.20
18779;DHT22;9518;51.720;14.384;2023-07-24T00:46:19;18.30;90.30
18779;DHT22;9518;51.720;14.384;2023-07-24T00:48:46;18.30;90.30
18779;DHT22;9518;51.720;14.384;2023-07-24T00:51:13;18.40;90.00
18779;DHT22;9518;51.720;14.384;2023-07-24T00:53:40;18.40;90.70
18779;DHT22;9518;51.720;14.384;2023-07-24T00:56:07;18.40;90.70
18779;DHT22;9518;51.720;14.384;2023-07-24T00:58:37;18.40;91.00
18779;DHT22;9518;51.720;14.384;2023-07-24T01:01:05;18.40;90.70
18779;DHT22;9518;51.720;14.384;2023-07-24T01:03:33;18.40;91.00
18779;DHT22;9518;51.720;14.384;2023-07-24T01:06:01;18.40;91.60
18779;DHT22;9518;51.720;14.384;2023-07-24T01:08:28;18.40;91.10
18779;DHT22;9518;51.720;14.384;2023-07-24T01:10:58;18.40;90.80
18779;DHT22;9518;51.720;14.384;2023-07-24T01:13:31;18.40;91.80
18779;DHT22;9518;51.720;14.384;2023-07-24T01:16:09;18.40;91.10
18779;DHT22;9518;51.720;14.384;2023-07-24T01:18:38;18.40;91.30
18779;DHT22;9518;51.720;14.384;2023-07-24T01:21:09;18.30;91.20
18779;DHT22;9518;51.720;14.384;2023-07-24T01:23:44;18.30;90.70
18779;DHT22;9518;51.720;14.384;2023-07-24T01:26:18;18.30;90.70
18779;DHT22;9518;51.720;14.384;2023-07-24T01:28:45;18.30;91.20
18779;DHT22;9518;51.720;14.384;2023-07-24T01:31:12;18.30;91.20
18779;DHT22;9518;51.720;14.384;2023-07-24T01:33:39;18.20;91.20
18779;DHT22;9518;51.720;14.384;2023-07-24T01:36:07;18.20;91.40
18779;DHT22;9518;51.720;14.384;2023-07-24T01:38:35;18.10;91.40
18779;DHT22;9518;51.720;14.384;2023-07-24T01:41:02;18.10;91.50
18779;DHT22;9518;51.720;14.384;2023-07-24T01:43:31;18.00;91.10
18779;DHT22;9518;51.720;14.384;2023-07-24T01:45:59;18.00;91.00
18779;DHT22;9518;51.720;14.384;2023-07-24T01:48:26;17.90;91.50
18779;DHT22;9518;51.720;14.384;2023-07-24T01:50:53;17.80;91.30
18779;DHT22;9518;51.720;14.384;2023-07-24T01:53:20;17.80;91.00
18779;DHT22;9518;51.720;14.384;2023-07-24T01:55:47;17.70;91.00
18779;DHT22;9518;51.720;14.384;2023-07-24T01:58:14;17.60;91.40
18779;DHT22;9518;51.720;14.384;2023-07-24T02:00:43;17.50;92.10
18779;DHT22;9518;51.720;14.384;2023-07-24T02:03:10;17.40;92.60
18779;DHT22;9518;51.720;14.384;2023-07-24T02:05:37;17.30;92.40
18779;DHT22;9518;51.720;14.384;2023-07-24T02:08:04;17.10;92.50
18779;DHT22;9518;51.720;14.384;2023-07-24T02:10:31;17.00;93.00
18779;DHT22;9518;51.720;14.384;2023-07-24T02:12:58;17.00;93.40
18779;DHT22;9518;51.720;14.384;2023-07-24T02:15:25;16.90;94.80
18779;DHT22;9518;51.720;14.384;2023-07-24T02:17:54;16.90;95.00
18779;DHT22;9518;51.720;14.384;2023-07-24T02:20:21;16.80;95.30
18779;DHT22;9518;51.720;14.384;2023-07-24T02:22:48;16.70;95.00
18779;DHT22;9518;51.720;14.384;2023-07-24T02:25:15;16.80;95.10
18779;DHT22;9518;51.720;14.384;2023-07-24T02:27:42;16.80;95.10
18779;DHT22;9518;51.720;14.384;2023-07-24T02:30:10;16.90;95.40
18779;DHT22;9518;51.720;14.384;2023-07-24T02:32:37;17.00;95.70
18779;DHT22;9518;51.720;14.384;2023-07-24T02:35:07;16.90;96.10
18779;DHT22;9518;51.720;14.384;2023-07-24T02:37:34;17.00;96.60
18779;DHT22;9518;51.720;14.384;2023-07-24T02:40:01;17.00;96.60
18779;DHT22;9518;51.720;14.384;2023-07-24T02:42:28;17.00;97.10
18779;DHT22;9518;51.720;14.384;2023-07-24T02:44:55;16.90;96.90
18779;DHT22;9518;51.720;14.384;2023-07-24T02:47:22;16.90;96.60
18779;DHT22;9518;51.720;14.384;2023-07-24T02:49:50;17.00;97.40
18779;DHT22;9518;51.720;14.384;2023-07-24T02:52:18;17.00;97.60
18779;DHT22;9518;51.720;14.384;2023-07-24T02:54:45;17.10;97.20
18779;DHT22;9518;51.720;14.384;2023-07-24T02:57:12;17.10;97.40
18779;DHT22;9518;51.720;14.384;2023-07-24T02:59:39;17.20;97.50
18779;DHT22;9518;51.720;14.384;2023-07-24T03:02:06;17.20;97.10
18779;DHT22;9518;51.720;14.384;2023-07-24T03:04:33;17.30;97.10
18779;DHT22;9518;51.720;14.384;2023-07-24T03:07:00;17.40;96.90
18779;DHT22;9518;51.720;14.384;2023-07-24T03:09:29;17.50;96.90
18779;DHT22;9518;51.720;14.384;2023-07-24T03:11:56;17.50;97.10
18779;DHT22;9518;51.720;14.384;2023-07-24T03:14:23;17.60;96.00
18779;DHT22;9518;51.720;14.384;2023-07-24T03:16:50;17.60;95.50
18779;DHT22;9518;51.720;14.384;2023-07-24T03:19:17;17.70;95.10
18779;DHT22;9518;51.720;14.384;2023-07-24T03:21:45;17.80;95.30
18779;DHT22;9518;51.720;14.384;2023-07-24T03:24:12;17.90;94.70
18779;DHT22;9518;51.720;14.384;2023-07-24T03:26:41;17.90;94.10
18779;DHT22;9518;51.720;14.384;2023-07-24T03:29:08;17.90;94.50
18779;DHT22;9518;51.720;14.384;2023-07-24T03:31:35;17.90;93.80
18779;DHT22;9518;51.720;14.384;2023-07-24T03:34:02;18.00;94.50
18779;DHT22;9518;51.720;14.384;2023-07-24T03:36:29;17.90;94.00
18779;DHT22;9518;51.720;14.384;2023-07-24T03:38:56;18.00;94.30
18779;DHT22;9518;51.720;14.384;2023-07-24T03:41:23;18.00;94.70
18779;DHT22;9518;51.720;14.384;2023-07-24T03:43:53;18.00;94.30
18779;DHT22;9518;51.720;14.384;2023-07-24T03:46:20;18.10;93.60
18779;DHT22;9518;51.720;14.384;2023-07-24T03:48:47;18.10;94.80
18779;DHT22;9518;51.720;14.384;2023-07-24T03:51:16;18.10;94.30
18779;DHT22;9518;51.720;14.384;2023-07-24T03:53:43;18.10;94.30
18779;DHT22;9518;51.720;14.384;2023-07-24T03:56:10;18.20;93.60
18779;DHT22;9518;51.720;14.384;2023-07-24T03:58:37;18.20;92.90
18779;DHT22;9518;51.720;14.384;2023-07-24T04:01:06;18.20;93.80
18779;DHT22;9518;51.720;14.384;2023-07-24T04:03:33;18.30;93.10
18779;DHT22;9518;51.720;14.384;2023-07-24T04:06:01;18.30;92.70
18779;DHT22;9518;51.720;14.384;2023-07-24T04:08:28;18.30;93.00
18779;DHT22;9518;51.720;14.384;2023-07-24T04:10:55;18.30;93.10
18779;DHT22;9518;51.720;14.384;2023-07-24T04:13:22;18.30;92.70
18779;DHT22;9518;51.720;14.384;2023-07-24T04:15:49;18.40;93.00
18779;DHT22;9518;51.720;14.384;2023-07-24T04:18:18;18.40;92.70
18779;DHT22;9518;51.720;14.384;2023-07-24T04:20:45;18.40;92.70
18779;DHT22;9518;51.720;14.384;2023-07-24T04:23:12;18.50;92.90
18779;DHT22;9518;51.720;14.384;2023-07-24T04:25:39;18.50;92.80
18779;DHT22;9518;51.720;14.384;2023-07-24T04:28:06;18.50;93.10
18779;DHT22;9518;51.720;14.384;2023-07-24T04:30:33;18.60;92.90
18779;DHT22;9518;51.720;14.384;2023-07-24T04:33:00;18.70;92.40
18779;DHT22;9518;51.720;14.384;2023-07-24T04:35:29;18.70;92.20
18779;DHT22;9518;51.720;14.384;2023-07-24T04:37:56;18.80;92.30
18779;DHT22;9518;51.720;14.384;2023-07-24T04:40:23;19.00;92.10
18779;DHT22;9518;51.720;14.384;2023-07-24T04:42:50;19.20;92.10
18779;DHT22;9518;51.720;14.384;2023-07-24T04:45:17;19.30;91.90
18779;DHT22;9518;51.720;14.384;2023-07-24T04:47:44;19.40;91.60
18779;DHT22;9518;51.720;14.384;2023-07-24T04:50:11;19.60;91.90
18779;DHT22;9518;51.720;14.384;2023-07-24T04:52:40;19.70;90.50
18779;DHT22;9518;51.720;14.384;2023-07-24T04:55:07;19.90;89.80
18779;DHT22;9518;51.720;14.384;2023-07-24T04:57:34;20.00;88.80
18779;DHT22;9518;51.720;14.384;2023-07-24T05:00:01;20.10;88.10
18779;DHT22;9518;51.720;14.384;2023-07-24T05:02:28;20.20;88.20
18779;DHT22;9518;51.720;14.384;2023-07-24T05:04:55;20.30;88.60
18779;DHT22;9518;51.720;14.384;2023-07-24T05:07:22;20.40;86.80
18779;DHT22;9518;51.720;14.384;2023-07-24T05:09:50;20.40;87.70
18779;DHT22;9518;51.720;14.384;2023-07-24T05:12:17;20.40;89.70
18779;DHT22;9518;51.720;14.384;2023-07-24T05:14:44;20.30;87.10
18779;DHT22;9518;51.720;14.384;2023-07-24T05:17:11;20.30;86.40
18779;DHT22;9518;51.720;14.384;2023-07-24T05:19:39;20.20;86.50
18779;DHT22;9518;51.720;14.384;2023-07-24T05:22:06;20.20;86.40
18779;DHT22;9518;51.720;14.384;2023-07-24T05:24:33;20.30;87.90
18779;DHT22;9518;51.720;14.384;2023-07-24T05:27:01;20.40;87.40
18779;DHT22;9518;51.720;14.384;2023-07-24T05:29:28;20.60;87.70
18779;DHT22;9518;51.720;14.384;2023-07-24T05:31:55;20.70;87.50
18779;DHT22;9518;51.720;14.384;2023-07-24T05:34:24;20.80;85.30
18779;DHT22;9518;51.720;14.384;2023-07-24T05:36:51;21.10;83.90
18779;DHT22;9518;51.720;14.384;2023-07-24T05:39:18;21.40;82.90
18779;DHT22;9518;51.720;14.384;2023-07-24T05:41:46;21.60;79.40
18779;DHT22;9518;51.720;14.384;2023-07-24T05:44:15;21.70;79.20
18779;DHT22;9518;51.720;14.384;2023-07-24T05:46:44;21.90;80.20
18779;DHT22;9518;51.720;14.384;2023-07-24T05:49:11;22.10;80.90
18779;DHT22;9518;51.720;14.384;2023-07-24T05:51:38;22.30;78.60
18779;DHT22;9518;51.720;14.384;2023-07-24T05:54:05;22.50;76.00
18779;DHT22;9518;51.720;14.384;2023-07-24T05:56:32;22.70;75.70
18779;DHT22;9518;51.720;14.384;2023-07-24T05:58:59;22.80;74.50
18779;DHT22;9518;51.720;14.384;2023-07-24T06:01:27;22.90;72.30
18779;DHT22;9518;51.720;14.384;2023-07-24T06:03:54;22.90;71.80
18779;DHT22;9518;51.720;14.384;2023-07-24T06:06:21;22.90;73.10
18779;DHT22;9518;51.720;14.384;2023-07-24T06:08:48;22.90;70.60
18779;DHT22;9518;51.720;14.384;2023-07-24T06:11:16;23.00;70.30
18779;DHT22;9518;51.720;14.384;2023-07-24T06:13:43;23.30;70.20
18779;DHT22;9518;51.720;14.384;2023-07-24T06:16:10;23.50;66.90
18779;DHT22;9518;51.720;14.384;2023-07-24T06:18:40;23.70;66.70
18779;DHT22;9518;51.720;14.384;2023-07-24T06:21:08;23.90;66.00
18779;DHT22;9518;51.720;14.384;2023-07-24T06:23:35;23.90;63.80
18779;DHT22;9518;51.720;14.384;2023-07-24T06:26:02;24.00;64.10
18779;DHT22;9518;51.720;14.384;2023-07-24T06:28:29;24.00;64.30
18779;DHT22;9518;51.720;14.384;2023-07-24T06:30:57;24.20;62.40
18779;DHT22;9518;51.720;14.384;2023-07-24T06:33:24;24.40;62.10
18779;DHT22;9518;51.720;14.384;2023-07-24T06:35:52;24.40;60.90
18779;DHT22;9518;51.720;14.384;2023-07-24T06:38:19;24.50;61.30
18779;DHT22;9518;51.720;14.384;2023-07-24T06:40:48;24.80;59.30
18779;DHT22;9518;51.720;14.384;2023-07-24T06:43:15;24.90;60.10
18779;DHT22;9518;51.720;14.384;2023-07-24T06:45:42;25.00;59.00
18779;DHT22;9518;51.720;14.384;2023-07-24T06:48:09;25.00;58.20
18779;DHT22;9518;51.720;14.384;2023-07-24T06:50:36;25.00;58.60
18779;DHT22;9518;51.720;14.384;2023-07-24T06:53:04;25.00;58.40
18779;DHT22;9518;51.720;14.384;2023-07-24T06:55:31;25.20;59.20
18779;DHT22;9518;51.720;14.384;2023-07-24T06:57:58;25.30;58.00
18779;DHT22;9518;51.720;14.384;2023-07-24T07:00:25;25.30;57.90
18779;DHT22;9518;51.720;14.384;2023-07-24T07:02:52;25.30;57.20
18779;DHT22;9518;51.720;14.384;2023-07-24T07:05:19;25.30;58.00
18779;DHT22;9518;51.720;14.384;2023-07-24T07:07:46;25.50;57.40
18779;DHT22;9518;51.720;14.384;2023-07-24T07:10:14;25.60;56.90
18779;DHT22;9518;51.720;14.384;2023-07-24T07:12:41;25.60;56.90
18779;DHT22;9518;51.720;14.384;2023-07-24T07:15:09;25.70;57.10
18779;DHT22;9518;51.720;14.384;2023-07-24T07:17:36;25.80;56.70
18779;DHT22;9518;51.720;14.384;2023-07-24T07:20:04;26.00;56.60
18779;DHT22;9518;51.720;14.384;2023-07-24T07:22:31;26.20;55.80
18779;DHT22;9518;51.720;14.384;2023-07-24T07:24:58;26.30;55.40
18779;DHT22;9518;51.720;14.384;2023-07-24T07:27:26;26.20;56.20
18779;DHT22;9518;51.720;14.384;2023-07-24T07:29:53;26.30;55.90
18779;DHT22;9518;51.720;14.384;2023-07-24T07:32:20;26.30;55.10
18779;DHT22;9518;51.720;14.384;2023-07-24T07:34:47;26.30;54.90
18779;DHT22;9518;51.720;14.384;2023-07-24T07:37:14;26.50;55.40
18779;DHT22;9518;51.720;14.384;2023-07-24T07:39:41;26.60;54.90
18779;DHT22;9518;51.720;14.384;2023-07-24T07:42:08;26.70;54.10
18779;DHT22;9518;51.720;14.384;2023-07-24T07:44:36;26.40;54.20
18779;DHT22;9518;51.720;14.384;2023-07-24T07:47:03;26.50;55.10
18779;DHT22;9518;51.720;14.384;2023-07-24T07:49:31;26.60;54.40
18779;DHT22;9518;51.720;14.384;2023-07-24T07:51:58;26.70;54.80
18779;DHT22;9518;51.720;14.384;2023-07-24T07:54:25;26.80;54.40
18779;DHT22;9518;51.720;14.384;2023-07-24T07:56:53;26.70;53.40
18779;DHT22;9518;51.720;14.384;2023-07-24T07:59:20;26.40;53.60
18779;DHT22;9518;51.720;14.384;2023-07-24T08:01:48;26.20;54.30
18779;DHT22;9518;51.720;14.384;2023-07-24T08:04:15;26.40;54.90
18779;DHT22;9518;51.720;14.384;2023-07-24T08:06:44;26.50;53.30
18779;DHT22;9518;51.720;14.384;2023-07-24T08:09:11;26.90;54.40
18779;DHT22;9518;51.720;14.384;2023-07-24T08:11:38;27.10;52.90
18779;DHT22;9518;51.720;14.384;2023-07-24T08:14:06;27.50;52.20
18779;DHT22;9518;51.720;14.384;2023-07-24T08:16:33;27.60;51.10
18779;DHT22;9518;51.720;14.384;2023-07-24T08:19:01;27.40;51.40
18779;DHT22;9518;51.720;14.384;2023-07-24T08:21:28;27.30;52.00
18779;DHT22;9518;51.720;14.384;2023-07-24T08:23:55;27.30;52.10
18779;DHT22;9518;51.720;14.384;2023-07-24T08:26:23;27.60;51.20
18779;DHT22;9518;51.720;14.384;2023-07-24T08:28:51;27.80;51.40
18779;DHT22;9518;51.720;14.384;2023-07-24T08:31:18;28.20;49.70
18779;DHT22;9518;51.720;14.384;2023-07-24T08:33:45;28.60;50.10
18779;DHT22;9518;51.720;14.384;2023-07-24T08:36:14;29.00;49.50
18779;DHT22;9518;51.720;14.384;2023-07-24T08:38:41;29.10;47.00
18779;DHT22;9518;51.720;14.384;2023-07-24T08:41:10;29.20;48.00
18779;DHT22;9518;51.720;14.384;2023-07-24T08:43:39;29.10;46.80
18779;DHT22;9518;51.720;14.384;2023-07-24T08:46:07;28.70;47.30
18779;DHT22;9518;51.720;14.384;2023-07-24T08:48:37;28.50;47.90
18779;DHT22;9518;51.720;14.384;2023-07-24T08:51:06;28.80;49.50
18779;DHT22;9518;51.720;14.384;2023-07-24T08:53:36;29.20;47.10
18779;DHT22;9518;51.720;14.384;2023-07-24T08:56:06;29.20;46.30
18779;DHT22;9518;51.720;14.384;2023-07-24T08:58:34;29.50;46.50
18779;DHT22;9518;51.720;14.384;2023-07-24T09:01:03;29.50;46.20
18779;DHT22;9518;51.720;14.384;2023-07-24T09:03:30;29.70;45.50
18779;DHT22;9518;51.720;14.384;2023-07-24T09:05:58;29.40;45.50
18779;DHT22;9518;51.720;14.384;2023-07-24T09:08:30;29.30;45.60
18779;DHT22;9518;51.720;14.384;2023-07-24T09:10:59;29.20;46.20
18779;DHT22;9518;51.720;14.384;2023-07-24T09:13:26;29.20;44.80
18779;DHT22;9518;51.720;14.384;2023-07-24T09:15:54;28.80;45.50
18779;DHT22;9518;51.720;14.384;2023-07-24T09:18:21;28.60;46.20
18779;DHT22;9518;51.720;14.384;2023-07-24T09:20:48;28.30;46.20
18779;DHT22;9518;51.720;14.384;2023-07-24T09:23:16;28.20;47.10
18779;DHT22;9518;51.720;14.384;2023-07-24T09:25:51;28.40;46.60
18779;DHT22;9518;51.720;14.384;2023-07-24T09:28:20;28.40;45.90
18779;DHT22;9518;51.720;14.384;2023-07-24T09:30:54;28.40;46.60
18779;DHT22;9518;51.720;14.384;2023-07-24T09:33:22;28.60;45.60
18779;DHT22;9518;51.720;14.384;2023-07-24T09:35:59;28.80;45.80
18779;DHT22;9518;51.720;14.384;2023-07-24T09:38:26;29.10;46.70
18779;DHT22;9518;51.720;14.384;2023-07-24T09:40:53;29.50;45.10
18779;DHT22;9518;51.720;14.384;2023-07-24T09:43:24;29.70;45.10
18779;DHT22;9518;51.720;14.384;2023-07-24T09:45:52;29.90;43.90
18779;DHT22;9518;51.720;14.384;2023-07-24T09:48:21;29.70;44.20
18779;DHT22;9518;51.720;14.384;2023-07-24T09:50:52;29.60;44.10
18779;DHT22;9518;51.720;14.384;2023-07-24T09:53:22;29.20;43.70
18779;DHT22;9518;51.720;14.384;2023-07-24T09:55:56;29.10;43.90
18779;DHT22;9518;51.720;14.384;2023-07-24T09:58:26;29.10;44.60
18779;DHT22;9518;51.720;14.384;2023-07-24T10:00:53;29.00;44.70
18779;DHT22;9518;51.720;14.384;2023-07-24T10:03:21;28.90;44.70
18779;DHT22;9518;51.720;14.384;2023-07-24T10:05:49;28.80;44.40
18779;DHT22;9518;51.720;14.384;2023-07-24T10:08:18;28.70;46.00
18779;DHT22;9518;51.720;14.384;2023-07-24T10:10:45;28.70;45.10
18779;DHT22;9518;51.720;14.384;2023-07-24T10:13:17;28.80;44.60
18779;DHT22;9518;51.720;14.384;2023-07-24T10:15:46;28.90;44.90
18779;DHT22;9518;51.720;14.384;2023-07-24T10:18:16;29.20;44.80
18779;DHT22;9518;51.720;14.384;2023-07-24T10:20:44;29.30;44.30
18779;DHT22;9518;51.720;14.384;2023-07-24T10:23:17;29.40;44.10
18779;DHT22;9518;51.720;14.384;2023-07-24T10:25:50;29.60;44.50
18779;DHT22;9518;51.720;14.384;2023-07-24T10:28:18;30.00;43.30
18779;DHT22;9518;51.720;14.384;2023-07-24T10:30:55;30.10;43.30
18779;DHT22;9518;51.720;14.384;2023-07-24T10:33:22;30.10;42.00
18779;DHT22;9518;51.720;14.384;2023-07-24T10:35:52;30.20;42.10
18779;DHT22;9518;51.720;14.384;2023-07-24T10:38:20;30.10;42.30
18779;DHT22;9518;51.720;14.384;2023-07-24T10:41:01;30.20;42.10
18779;DHT22;9518;51.720;14.384;2023-07-24T10:43:29;30.30;41.70
18779;DHT22;9518;51.720;14.384;2023-07-24T10:45:57;30.60;42.00
18779;DHT22;9518;51.720;14.384;2023-07-24T10:48:25;30.70;41.10
18779;DHT22;9518;51.720;14.384;2023-07-24T10:50:52;30.80;41.00
18779;DHT22;9518;51.720;14.384;2023-07-24T10:53:20;31.00;40.90
18779;DHT22;9518;51.720;14.384;2023-07-24T10:55:48;31.10;40.60
18779;DHT22;9518;51.720;14.384;2023-07-24T10:58:16;30.80;40.90
18779;DHT22;9518;51.720;14.384;2023-07-24T11:00:44;30.70;40.10
18779;DHT22;9518;51.720;14.384;2023-07-24T11:03:14;31.20;40.80
18779;DHT22;9518;51.720;14.384;2023-07-24T11:05:42;31.60;40.80
18779;DHT22;9518;51.720;14.384;2023-07-24T11:08:11;31.60;39.90
18779;DHT22;9518;51.720;14.384;2023-07-24T11:10:44;31.70;39.80
18779;DHT22;9518;51.720;14.384;2023-07-24T11:13:12;31.60;39.50
18779;DHT22;9518;51.720;14.384;2023-07-24T11:15:39;31.60;39.90
18779;DHT22;9518;51.720;14.384;2023-07-24T11:18:06;31.60;40.00
18779;DHT22;9518;51.720;14.384;2023-07-24T11:20:44;31.50;40.20
18779;DHT22;9518;51.720;14.384;2023-07-24T11:23:11;31.60;39.90
18779;DHT22;9518;51.720;14.384;2023-07-24T11:25:38;31.90;39.80
18779;DHT22;9518;51.720;14.384;2023-07-24T11:28:06;32.00;38.90
18779;DHT22;9518;51.720;14.384;2023-07-24T11:30:33;32.20;39.20
18779;DHT22;9518;51.720;14.384;2023-07-24T11:33:02;32.60;38.20
18779;DHT22;9518;51.720;14.384;2023-07-24T11:35:29;33.00;37.70
18779;DHT22;9518;51.720;14.384;2023-07-24T11:37:58;33.80;37.60
18779;DHT22;9518;51.720;14.384;2023-07-24T11:40:32;34.40;35.80
18779;DHT22;9518;51.720;14.384;2023-07-24T11:42:59;34.90;34.50
18779;DHT22;9518;51.720;14.384;2023-07-24T11:45:26;34.80;34.00
18779;DHT22;9518;51.720;14.384;2023-07-24T11:47:53;34.70;34.70
18779;DHT22;9518;51.720;14.384;2023-07-24T11:50:22;34.50;34.90
18779;DHT22;9518;51.720;14.384;2023-07-24T11:52:51;34.90;34.50
18779;DHT22;9518;51.720;14.384;2023-07-24T11:55:30;35.50;34.30
18779;DHT22;9518;51.720;14.384;2023-07-24T11:57:58;34.10;34.00
18779;DHT22;9518;51.720;14.384;2023-07-24T12:00:26;32.80;35.70
18779;DHT22;9518;51.720;14.384;2023-07-24T12:02:58;32.00;37.10
18779;DHT22;9518;51.720;14.384;2023-07-24T12:05:25;31.30;38.40
18779;DHT22;9518;51.720;14.384;2023-07-24T12:07:54;31.10;39.40
18779;DHT22;9518;51.720;14.384;2023-07-24T12:10:27;31.10;39.70
18779;DHT22;9518;51.720;14.384;2023-07-24T12:12:58;30.90;39.80
18779;DHT22;9518;51.720;14.384;2023-07-24T12:15:26;30.70;40.80
18779;DHT22;9518;51.720;14.384;2023-07-24T12:17:53;31.00;40.60
18779;DHT22;9518;51.720;14.384;2023-07-24T12:20:20;31.60;40.10
18779;DHT22;9518;51.720;14.384;2023-07-24T12:22:47;32.60;38.10
18779;DHT22;9518;51.720;14.384;2023-07-24T12:25:15;33.30;37.60
18779;DHT22;9518;51.720;14.384;2023-07-24T12:27:43;33.50;37.70
18779;DHT22;9518;51.720;14.384;2023-07-24T12:30:10;33.70;37.00
18779;DHT22;9518;51.720;14.384;2023-07-24T12:32:37;33.80;37.90
18779;DHT22;9518;51.720;14.384;2023-07-24T12:35:05;34.70;37.70
18779;DHT22;9518;51.720;14.384;2023-07-24T12:37:32;35.00;36.70
18779;DHT22;9518;51.720;14.384;2023-07-24T12:39:59;34.00;36.70
18779;DHT22;9518;51.720;14.384;2023-07-24T12:42:26;32.90;37.80
18779;DHT22;9518;51.720;14.384;2023-07-24T12:44:54;32.40;39.10
18779;DHT22;9518;51.720;14.384;2023-07-24T12:47:22;32.20;40.00
18779;DHT22;9518;51.720;14.384;2023-07-24T12:49:49;32.50;39.80
18779;DHT22;9518;51.720;14.384;2023-07-24T12:52:18;32.30;38.10
18779;DHT22;9518;51.720;14.384;2023-07-24T12:54:45;32.00;39.40
18779;DHT22;9518;51.720;14.384;2023-07-24T12:57:12;32.00;38.90
18779;DHT22;9518;51.720;14.384;2023-07-24T12:59:39;31.60;38.60
18779;DHT22;9518;51.720;14.384;2023-07-24T13:02:07;31.30;39.60
18779;DHT22;9518;51.720;14.384;2023-07-24T13:04:35;31.10;39.80
18779;DHT22;9518;51.720;14.384;2023-07-24T13:07:03;31.10;41.30
18779;DHT22;9518;51.720;14.384;2023-07-24T13:09:30;31.20;41.00
18779;DHT22;9518;51.720;14.384;2023-07-24T13:11:57;31.30;41.20
18779;DHT22;9518;51.720;14.384;2023-07-24T13:14:24;31.30;41.80
18779;DHT22;9518;51.720;14.384;2023-07-24T13:16:54;31.10;41.80
18779;DHT22;9518;51.720;14.384;2023-07-24T13:19:23;30.90;43.10
18779;DHT22;9518;51.720;14.384;2023-07-24T13:21:50;31.00;42.80
18779;DHT22;9518;51.720;14.384;2023-07-24T13:24:17;30.90;42.20
18779;DHT22;9518;51.720;14.384;2023-07-24T13:26:44;30.70;42.50
18779;DHT22;9518;51.720;14.384;2023-07-24T13:29:11;30.50;43.30
18779;DHT22;9518;51.720;14.384;2023-07-24T13:31:38;30.20;42.80
18779;DHT22;9518;51.720;14.384;2023-07-24T13:34:06;30.00;43.70
18779;DHT22;9518;51.720;14.384;2023-07-24T13:36:35;30.40;43.30
18779;DHT22;9518;51.720;14.384;2023-07-24T13:39:02;30.90;42.40
18779;DHT22;9518;51.720;14.384;2023-07-24T13:41:29;31.70;41.60
18779;DHT22;9518;51.720;14.384;2023-07-24T13:43:56;32.60;41.00
18779;DHT22;9518;51.720;14.384;2023-07-24T13:46:23;33.00;41.20
18779;DHT22;9518;51.720;14.384;2023-07-24T13:48:50;33.90;41.00
18779;DHT22;9518;51.720;14.384;2023-07-24T13:51:17;34.90;39.20
18779;DHT22;9518;51.720;14.384;2023-07-24T13:53:46;35.40;38.10
18779;DHT22;9518;51.720;14.384;2023-07-24T13:56:17;35.30;37.00
18779;DHT22;9518;51.720;14.384;2023-07-24T13:58:44;35.40;37.40
18779;DHT22;9518;51.720;14.384;2023-07-24T14:01:11;35.10;37.10
18779;DHT22;9518;51.720;14.384;2023-07-24T14:03:38;34.60;38.40
18779;DHT22;9518;51.720;14.384;2023-07-24T14:06:05;34.70;38.40
18779;DHT22;9518;51.720;14.384;2023-07-24T14:08:32;34.90;37.80
18779;DHT22;9518;51.720;14.384;2023-07-24T14:11:02;34.90;37.30
18779;DHT22;9518;51.720;14.384;2023-07-24T14:13:29;34.40;37.50
18779;DHT22;9518;51.720;14.384;2023-07-24T14:15:56;34.40;38.00
18779;DHT22;9518;51.720;14.384;2023-07-24T14:18:23;33.80;38.70
18779;DHT22;9518;51.720;14.384;2023-07-24T14:20:50;33.50;39.60
18779;DHT22;9518;51.720;14.384;2023-07-24T14:23:20;33.00;40.30
18779;DHT22;9518;51.720;14.384;2023-07-24T14:25:47;32.50;41.50
18779;DHT22;9518;51.720;14.384;2023-07-24T14:28:15;32.20;41.90
18779;DHT22;9518;51.720;14.384;2023-07-24T14:30:43;32.00;43.50
18779;DHT22;9518;51.720;14.384;2023-07-24T14:33:10;31.50;43.90
18779;DHT22;9518;51.720;14.384;2023-07-24T14:35:37;32.30;43.00
18779;DHT22;9518;51.720;14.384;2023-07-24T14:38:04;33.20;41.50
18779;DHT22;9518;51.720;14.384;2023-07-24T14:40:31;34.10;39.50
18779;DHT22;9518;51.720;14.384;2023-07-24T14:42:58;35.00;37.80
18779;DHT22;9518;51.720;14.384;2023-07-24T14:45:26;36.10;36.60
18779;DHT22;9518;51.720;14.384;2023-07-24T14:47:53;36.30;34.90
18779;DHT22;9518;51.720;14.384;2023-07-24T14:50:21;35.40;35.90
18779;DHT22;9518;51.720;14.384;2023-07-24T14:52:48;34.70;36.20
18779;DHT22;9518;51.720;14.384;2023-07-24T14:55:15;33.70;36.20
18779;DHT22;9518;51.720;14.384;2023-07-24T14:57:42;32.70;36.40
18779;DHT22;9518;51.720;14.384;2023-07-24T15:00:10;32.10;38.10
18779;DHT22;9518;51.720;14.384;2023-07-24T15:02:39;32.00;38.90
18779;DHT22;9518;51.720;14.384;2023-07-24T15:05:06;32.00;38.70
18779;DHT22;9518;51.720;14.384;2023-07-24T15:07:33;31.50;39.50
18779;DHT22;9518;51.720;14.384;2023-07-24T15:10:00;31.20;39.80
18779;DHT22;9518;51.720;14.384;2023-07-24T15:12:27;31.00;40.70
18779;DHT22;9518;51.720;14.384;2023-07-24T15:14:56;30.80;40.20
18779;DHT22;9518;51.720;14.384;2023-07-24T15:17:23;30.70;41.30
18779;DHT22;9518;51.720;14.384;2023-07-24T15:19:51;30.60;41.10
18779;DHT22;9518;51.720;14.384;2023-07-24T15:22:19;30.30;41.90
18779;DHT22;9518;51.720;14.384;2023-07-24T15:24:46;29.90;43.30
18779;DHT22;9518;51.720;14.384;2023-07-24T15:27:13;29.70;43.50
18779;DHT22;9518;51.720;14.384;2023-07-24T15:29:40;29.50;44.00
18779;DHT22;9518;51.720;14.384;2023-07-24T15:32:07;29.40;43.70
18779;DHT22;9518;51.720;14.384;2023-07-24T15:34:34;29.30;44.60